sensor_id;sensor_type;location;lat;lon;timestamp;P1;durP1;ratioP1;P2;durP2;ratioP2
33266;SDS011;19638;49.080;11.896;2023-04-22T00:00:17;9.57;;;6.00;;
33266;SDS011;19638;49.080;11.896;2023-04-22T00:04:22;9.82;;;5.75;;
33266;SDS011;19638;49.080;11.896;2023-04-22T00:08:25;12.88;;;7.20;;
33266;SDS011;19638;49.080;11.896;2023-04-22T00:12:31;14.73;;;6.63;;
33266;SDS011;19638;49.080;11.896;2023-04-22T00:16:34;11.00;;;6.07;;
33266;SDS011;19638;49.080;11.896;2023-04-22T00:20:41;9.93;;;5.77;;
33266;SDS011;19638;49.080;11.896;2023-04-22T00:24:45;16.40;;;6.03;;
33266;SDS011;19638;49.080;11.896;2023-04-22T00:28:48;11.67;;;6.90;;
33266;SDS011;19638;49.080;11.896;2023-04-22T00:32:54;10.80;;;6.47;;
33266;SDS011;19638;49.080;11.896;2023-04-22T00:36:58;12.50;;;7.07;;
33266;SDS011;19638;49.080;11.896;2023-04-22T00:41:02;14.93;;;6.83;;
33266;SDS011;19638;49.080;11.896;2023-04-22T00:45:10;10.60;;;6.10;;
33266;SDS011;19638;49.080;11.896;2023-04-22T00:49:18;9.40;;;6.17;;
33266;SDS011;19638;49.080;11.896;2023-04-22T00:53:29;10.13;;;6.00;;
33266;SDS011;19638;49.080;11.896;2023-04-22T00:57:32;7.23;;;5.57;;
33266;SDS011;19638;49.080;11.896;2023-04-22T01:01:42;8.80;;;5.77;;
33266;SDS011;19638;49.080;11.896;2023-04-22T01:05:46;14.73;;;6.80;;
33266;SDS011;19638;49.080;11.896;2023-04-22T01:09:57;13.83;;;7.37;;
33266;SDS011;19638;49.080;11.896;2023-04-22T01:14:02;14.97;;;8.27;;
33266;SDS011;19638;49.080;11.896;2023-04-22T01:18:06;13.83;;;7.30;;
33266;SDS011;19638;49.080;11.896;2023-04-22T01:22:13;16.43;;;7.33;;
33266;SDS011;19638;49.080;11.896;2023-04-22T01:26:20;13.13;;;7.10;;
33266;SDS011;19638;49.080;11.896;2023-04-22T01:30:25;14.97;;;7.00;;
33266;SDS011;19638;49.080;11.896;2023-04-22T01:34:31;9.00;;;6.13;;
33266;SDS011;19638;49.080;11.896;2023-04-22T01:38:35;10.33;;;6.73;;
33266;SDS011;19638;49.080;11.896;2023-04-22T01:42:42;16.53;;;6.23;;
33266;SDS011;19638;49.080;11.896;2023-04-22T01:46:45;8.53;;;5.80;;
33266;SDS011;19638;49.080;11.896;2023-04-22T01:50:48;9.67;;;6.40;;
33266;SDS011;19638;49.080;11.896;2023-04-22T01:54:51;12.00;;;6.63;;
33266;SDS011;19638;49.080;11.896;2023-04-22T01:58:57;13.27;;;7.80;;
33266;SDS011;19638;49.080;11.896;2023-04-22T02:03:00;10.47;;;7.47;;
33266;SDS011;19638;49.080;11.896;2023-04-22T02:07:09;13.27;;;7.43;;
33266;SDS011;19638;49.080;11.896;2023-04-22T02:11:12;14.43;;;7.33;;
33266;SDS011;19638;49.080;11.896;2023-04-22T02:15:21;10.00;;;6.73;;
33266;SDS011;19638;49.080;11.896;2023-04-22T02:19:24;10.00;;;6.53;;
33266;SDS011;19638;49.080;11.896;2023-04-22T02:23:27;15.20;;;6.83;;
33266;SDS011;19638;49.080;11.896;2023-04-22T02:27:31;11.30;;;6.10;;
33266;SDS011;19638;49.080;11.896;2023-04-22T02:31:35;15.07;;;6.00;;
33266;SDS011;19638;49.080;11.896;2023-04-22T02:35:39;13.47;;;6.53;;
33266;SDS011;19638;49.080;11.896;2023-04-22T02:39:42;12.40;;;6.00;;
33266;SDS011;19638;49.080;11.896;2023-04-22T02:43:49;12.52;;;6.22;;
33266;SDS011;19638;49.080;11.896;2023-04-22T02:47:56;10.27;;;5.80;;
33266;SDS011;19638;49.080;11.896;2023-04-22T02:52:02;12.40;;;5.90;;
33266;SDS011;19638;49.080;11.896;2023-04-22T02:56:06;10.70;;;6.10;;
33266;SDS011;19638;49.080;11.896;2023-04-22T03:00:12;10.03;;;5.87;;
33266;SDS011;19638;49.080;11.896;2023-04-22T03:04:17;9.00;;;6.50;;
33266;SDS011;19638;49.080;11.896;2023-04-22T03:08:22;14.10;;;6.53;;
33266;SDS011;19638;49.080;11.896;2023-04-22T03:12:25;13.73;;;6.80;;
33266;SDS011;19638;49.080;11.896;2023-04-22T03:16:28;14.87;;;6.50;;
33266;SDS011;19638;49.080;11.896;2023-04-22T03:20:33;10.00;;;6.57;;
33266;SDS011;19638;49.080;11.896;2023-04-22T03:24:40;9.43;;;5.53;;
33266;SDS011;19638;49.080;11.896;2023-04-22T03:28:43;13.50;;;5.85;;
33266;SDS011;19638;49.080;11.896;2023-04-22T03:32:48;7.30;;;5.03;;
33266;SDS011;19638;49.080;11.896;2023-04-22T03:36:55;13.23;;;5.93;;
33266;SDS011;19638;49.080;11.896;2023-04-22T03:40:59;12.25;;;6.03;;
33266;SDS011;19638;49.080;11.896;2023-04-22T03:45:03;11.97;;;6.47;;
33266;SDS011;19638;49.080;11.896;2023-04-22T03:49:07;10.43;;;5.97;;
33266;SDS011;19638;49.080;11.896;2023-04-22T03:53:18;15.43;;;5.97;;
33266;SDS011;19638;49.080;11.896;2023-04-22T03:57:21;10.73;;;6.03;;
33266;SDS011;19638;49.080;11.896;2023-04-22T04:01:24;15.50;;;6.10;;
33266;SDS011;19638;49.080;11.896;2023-04-22T04:05:28;10.90;;;6.47;;
33266;SDS011;19638;49.080;11.896;2023-04-22T04:09:32;15.43;;;6.27;;
33266;SDS011;19638;49.080;11.896;2023-04-22T04:13:38;16.97;;;6.87;;
33266;SDS011;19638;49.080;11.896;2023-04-22T04:17:42;12.40;;;6.23;;
33266;SDS011;19638;49.080;11.896;2023-04-22T04:21:45;19.57;;;8.90;;
33266;SDS011;19638;49.080;11.896;2023-04-22T04:25:50;15.63;;;7.17;;
33266;SDS011;19638;49.080;11.896;2023-04-22T04:29:53;13.27;;;6.57;;
33266;SDS011;19638;49.080;11.896;2023-04-22T04:33:56;13.97;;;7.13;;
33266;SDS011;19638;49.080;11.896;2023-04-22T04:37:59;16.83;;;6.80;;
33266;SDS011;19638;49.080;11.896;2023-04-22T04:42:04;14.87;;;7.13;;
33266;SDS011;19638;49.080;11.896;2023-04-22T04:46:07;11.30;;;6.27;;
33266;SDS011;19638;49.080;11.896;2023-04-22T04:50:11;12.83;;;7.23;;
33266;SDS011;19638;49.080;11.896;2023-04-22T04:54:16;15.63;;;8.43;;
33266;SDS011;19638;49.080;11.896;2023-04-22T04:58:24;11.47;;;7.30;;
33266;SDS011;19638;49.080;11.896;2023-04-22T05:02:31;16.57;;;8.47;;
33266;SDS011;19638;49.080;11.896;2023-04-22T05:06:40;16.63;;;7.30;;
33266;SDS011;19638;49.080;11.896;2023-04-22T05:10:43;18.40;;;8.77;;
33266;SDS011;19638;49.080;11.896;2023-04-22T05:14:51;13.37;;;7.80;;
33266;SDS011;19638;49.080;11.896;2023-04-22T05:18:54;15.60;;;7.60;;
33266;SDS011;19638;49.080;11.896;2023-04-22T05:22:58;20.20;;;8.40;;
33266;SDS011;19638;49.080;11.896;2023-04-22T05:27:01;18.43;;;8.27;;
33266;SDS011;19638;49.080;11.896;2023-04-22T05:31:06;13.80;;;7.67;;
33266;SDS011;19638;49.080;11.896;2023-04-22T05:35:12;15.47;;;7.50;;
33266;SDS011;19638;49.080;11.896;2023-04-22T05:39:16;15.83;;;8.07;;
33266;SDS011;19638;49.080;11.896;2023-04-22T05:43:19;13.20;;;6.77;;
33266;SDS011;19638;49.080;11.896;2023-04-22T05:47:23;13.50;;;6.73;;
33266;SDS011;19638;49.080;11.896;2023-04-22T05:51:33;10.50;;;6.40;;
33266;SDS011;19638;49.080;11.896;2023-04-22T05:55:36;12.30;;;6.83;;
33266;SDS011;19638;49.080;11.896;2023-04-22T05:59:41;10.90;;;6.77;;
33266;SDS011;19638;49.080;11.896;2023-04-22T06:03:48;9.77;;;6.40;;
33266;SDS011;19638;49.080;11.896;2023-04-22T06:07:53;8.73;;;5.77;;
33266;SDS011;19638;49.080;11.896;2023-04-22T06:11:57;13.90;;;6.27;;
33266;SDS011;19638;49.080;11.896;2023-04-22T06:16:02;13.45;;;6.40;;
33266;SDS011;19638;49.080;11.896;2023-04-22T06:20:11;12.52;;;6.28;;
33266;SDS011;19638;49.080;11.896;2023-04-22T06:24:14;8.65;;;4.80;;
33266;SDS011;19638;49.080;11.896;2023-04-22T06:28:17;8.95;;;4.60;;
33266;SDS011;19638;49.080;11.896;2023-04-22T06:32:20;47.95;;;7.38;;
33266;SDS011;19638;49.080;11.896;2023-04-22T06:36:26;11.07;;;4.45;;
33266;SDS011;19638;49.080;11.896;2023-04-22T06:40:32;11.65;;;4.50;;
33266;SDS011;19638;49.080;11.896;2023-04-22T06:44:36;7.72;;;4.47;;
33266;SDS011;19638;49.080;11.896;2023-04-22T06:48:39;11.98;;;4.88;;
33266;SDS011;19638;49.080;11.896;2023-04-22T06:52:46;7.28;;;4.30;;
33266;SDS011;19638;49.080;11.896;2023-04-22T06:56:49;6.68;;;4.20;;
33266;SDS011;19638;49.080;11.896;2023-04-22T07:00:52;10.20;;;4.35;;
33266;SDS011;19638;49.080;11.896;2023-04-22T07:04:55;5.43;;;3.72;;
33266;SDS011;19638;49.080;11.896;2023-04-22T07:09:00;8.10;;;3.78;;
33266;SDS011;19638;49.080;11.896;2023-04-22T07:13:03;8.27;;;4.30;;
33266;SDS011;19638;49.080;11.896;2023-04-22T07:17:06;7.28;;;4.07;;
33266;SDS011;19638;49.080;11.896;2023-04-22T07:21:09;6.68;;;4.30;;
33266;SDS011;19638;49.080;11.896;2023-04-22T07:25:15;9.88;;;4.10;;
33266;SDS011;19638;49.080;11.896;2023-04-22T07:29:18;6.45;;;4.20;;
33266;SDS011;19638;49.080;11.896;2023-04-22T07:33:30;8.52;;;3.95;;
33266;SDS011;19638;49.080;11.896;2023-04-22T07:37:33;5.70;;;4.20;;
33266;SDS011;19638;49.080;11.896;2023-04-22T07:41:38;6.95;;;4.32;;
33266;SDS011;19638;49.080;11.896;2023-04-22T07:45:41;7.07;;;4.43;;
33266;SDS011;19638;49.080;11.896;2023-04-22T07:49:47;10.00;;;3.80;;
33266;SDS011;19638;49.080;11.896;2023-04-22T07:53:52;6.70;;;4.55;;
33266;SDS011;19638;49.080;11.896;2023-04-22T07:57:56;8.63;;;4.07;;
33266;SDS011;19638;49.080;11.896;2023-04-22T08:02:04;12.00;;;4.30;;
33266;SDS011;19638;49.080;11.896;2023-04-22T08:06:11;7.28;;;4.40;;
33266;SDS011;19638;49.080;11.896;2023-04-22T08:10:20;7.68;;;4.68;;
33266;SDS011;19638;49.080;11.896;2023-04-22T08:14:25;8.60;;;4.25;;
33266;SDS011;19638;49.080;11.896;2023-04-22T08:18:28;5.95;;;4.28;;
33266;SDS011;19638;49.080;11.896;2023-04-22T08:22:34;9.43;;;4.40;;
33266;SDS011;19638;49.080;11.896;2023-04-22T08:26:41;6.75;;;4.00;;
33266;SDS011;19638;49.080;11.896;2023-04-22T08:30:47;6.28;;;3.90;;
33266;SDS011;19638;49.080;11.896;2023-04-22T08:34:57;5.57;;;4.35;;
33266;SDS011;19638;49.080;11.896;2023-04-22T08:39:05;6.53;;;3.63;;
33266;SDS011;19638;49.080;11.896;2023-04-22T08:43:10;7.60;;;3.80;;
33266;SDS011;19638;49.080;11.896;2023-04-22T08:47:15;5.28;;;3.53;;
33266;SDS011;19638;49.080;11.896;2023-04-22T08:51:22;4.82;;;3.90;;
33266;SDS011;19638;49.080;11.896;2023-04-22T08:55:25;7.53;;;4.03;;
33266;SDS011;19638;49.080;11.896;2023-04-22T08:59:29;8.05;;;4.15;;
33266;SDS011;19638;49.080;11.896;2023-04-22T09:03:34;6.40;;;3.70;;
33266;SDS011;19638;49.080;11.896;2023-04-22T09:07:40;7.72;;;3.45;;
33266;SDS011;19638;49.080;11.896;2023-04-22T09:11:44;6.82;;;3.78;;
33266;SDS011;19638;49.080;11.896;2023-04-22T09:15:52;6.40;;;3.83;;
33266;SDS011;19638;49.080;11.896;2023-04-22T09:20:01;4.70;;;3.63;;
33266;SDS011;19638;49.080;11.896;2023-04-22T09:24:09;4.32;;;3.92;;
33266;SDS011;19638;49.080;11.896;2023-04-22T09:28:16;7.20;;;4.05;;
33266;SDS011;19638;49.080;11.896;2023-04-22T09:32:26;4.90;;;3.63;;
33266;SDS011;19638;49.080;11.896;2023-04-22T09:36:31;8.25;;;4.22;;
33266;SDS011;19638;49.080;11.896;2023-04-22T09:40:40;4.75;;;3.53;;
33266;SDS011;19638;49.080;11.896;2023-04-22T09:44:50;5.57;;;4.03;;
33266;SDS011;19638;49.080;11.896;2023-04-22T09:48:55;4.93;;;3.60;;
33266;SDS011;19638;49.080;11.896;2023-04-22T09:53:01;4.55;;;3.72;;
33266;SDS011;19638;49.080;11.896;2023-04-22T09:57:05;6.88;;;3.65;;
33266;SDS011;19638;49.080;11.896;2023-04-22T10:01:16;5.30;;;3.25;;
33266;SDS011;19638;49.080;11.896;2023-04-22T10:05:24;5.07;;;4.00;;
33266;SDS011;19638;49.080;11.896;2023-04-22T10:09:36;6.45;;;3.78;;
33266;SDS011;19638;49.080;11.896;2023-04-22T10:13:42;7.38;;;3.65;;
33266;SDS011;19638;49.080;11.896;2023-04-22T10:17:51;4.50;;;3.55;;
33266;SDS011;19638;49.080;11.896;2023-04-22T10:21:57;6.40;;;3.67;;
33266;SDS011;19638;49.080;11.896;2023-04-22T10:26:03;5.28;;;3.58;;
33266;SDS011;19638;49.080;11.896;2023-04-22T10:30:07;3.67;;;2.88;;
33266;SDS011;19638;49.080;11.896;2023-04-22T10:34:15;5.72;;;3.60;;
33266;SDS011;19638;49.080;11.896;2023-04-22T10:38:20;5.50;;;3.85;;
33266;SDS011;19638;49.080;11.896;2023-04-22T10:42:26;5.88;;;3.53;;
33266;SDS011;19638;49.080;11.896;2023-04-22T10:51:05;10.70;;;6.78;;
33266;SDS011;19638;49.080;11.896;2023-04-22T10:55:47;11.50;;;7.32;;
33266;SDS011;19638;49.080;11.896;2023-04-22T10:59:54;24.58;;;14.98;;
33266;SDS011;19638;49.080;11.896;2023-04-22T11:08:24;4.60;;;3.58;;
33266;SDS011;19638;49.080;11.896;2023-04-22T11:12:41;4.68;;;3.30;;
33266;SDS011;19638;49.080;11.896;2023-04-22T11:16:54;4.35;;;3.10;;
33266;SDS011;19638;49.080;11.896;2023-04-22T11:21:02;3.40;;;3.05;;
33266;SDS011;19638;49.080;11.896;2023-04-22T11:25:08;7.47;;;3.35;;
33266;SDS011;19638;49.080;11.896;2023-04-22T11:29:13;3.42;;;3.03;;
33266;SDS011;19638;49.080;11.896;2023-04-22T11:33:26;4.80;;;3.28;;
33266;SDS011;19638;49.080;11.896;2023-04-22T11:37:29;4.70;;;2.95;;
33266;SDS011;19638;49.080;11.896;2023-04-22T11:41:33;4.13;;;2.53;;
33266;SDS011;19638;49.080;11.896;2023-04-22T11:45:36;4.78;;;2.60;;
33266;SDS011;19638;49.080;11.896;2023-04-22T11:49:52;3.95;;;2.90;;
33266;SDS011;19638;49.080;11.896;2023-04-22T11:53:59;5.18;;;2.60;;
33266;SDS011;19638;49.080;11.896;2023-04-22T11:58:04;4.22;;;2.72;;
33266;SDS011;19638;49.080;11.896;2023-04-22T12:02:08;5.35;;;3.00;;
33266;SDS011;19638;49.080;11.896;2023-04-22T12:06:15;7.20;;;3.00;;
33266;SDS011;19638;49.080;11.896;2023-04-22T12:10:18;6.80;;;2.88;;
33266;SDS011;19638;49.080;11.896;2023-04-22T12:14:26;3.97;;;2.58;;
33266;SDS011;19638;49.080;11.896;2023-04-22T12:18:34;5.68;;;2.63;;
33266;SDS011;19638;49.080;11.896;2023-04-22T12:22:39;4.95;;;2.97;;
33266;SDS011;19638;49.080;11.896;2023-04-22T12:26:49;2.92;;;2.42;;
33266;SDS011;19638;49.080;11.896;2023-04-22T12:30:53;4.38;;;2.60;;
33266;SDS011;19638;49.080;11.896;2023-04-22T12:35:01;3.15;;;2.20;;
33266;SDS011;19638;49.080;11.896;2023-04-22T12:39:06;4.20;;;2.60;;
33266;SDS011;19638;49.080;11.896;2023-04-22T12:43:16;4.43;;;2.90;;
33266;SDS011;19638;49.080;11.896;2023-04-22T12:47:19;5.03;;;2.63;;
33266;SDS011;19638;49.080;11.896;2023-04-22T12:51:37;3.17;;;2.78;;
33266;SDS011;19638;49.080;11.896;2023-04-22T12:55:42;3.38;;;2.60;;
33266;SDS011;19638;49.080;11.896;2023-04-22T12:59:46;2.60;;;2.40;;
33266;SDS011;19638;49.080;11.896;2023-04-22T13:03:49;7.00;;;2.42;;
33266;SDS011;19638;49.080;11.896;2023-04-22T13:07:55;2.63;;;2.28;;
33266;SDS011;19638;49.080;11.896;2023-04-22T13:12:09;2.65;;;2.40;;
33266;SDS011;19638;49.080;11.896;2023-04-22T13:16:12;3.22;;;2.70;;
33266;SDS011;19638;49.080;11.896;2023-04-22T13:20:15;3.53;;;2.20;;
33266;SDS011;19638;49.080;11.896;2023-04-22T13:24:18;4.38;;;2.65;;
33266;SDS011;19638;49.080;11.896;2023-04-22T13:28:25;3.60;;;2.30;;
33266;SDS011;19638;49.080;11.896;2023-04-22T13:32:28;3.15;;;2.47;;
33266;SDS011;19638;49.080;11.896;2023-04-22T13:36:34;2.60;;;2.40;;
33266;SDS011;19638;49.080;11.896;2023-04-22T13:40:40;2.58;;;2.38;;
33266;SDS011;19638;49.080;11.896;2023-04-22T13:44:44;2.55;;;2.22;;
33266;SDS011;19638;49.080;11.896;2023-04-22T13:48:48;3.03;;;2.63;;
33266;SDS011;19638;49.080;11.896;2023-04-22T13:52:54;3.03;;;2.17;;
33266;SDS011;19638;49.080;11.896;2023-04-22T13:56:57;3.97;;;2.30;;
33266;SDS011;19638;49.080;11.896;2023-04-22T14:01:01;2.35;;;2.15;;
33266;SDS011;19638;49.080;11.896;2023-04-22T14:05:05;3.35;;;2.25;;
33266;SDS011;19638;49.080;11.896;2023-04-22T14:09:12;2.83;;;2.40;;
33266;SDS011;19638;49.080;11.896;2023-04-22T14:13:20;3.13;;;2.83;;
33266;SDS011;19638;49.080;11.896;2023-04-22T14:17:27;3.28;;;2.58;;
33266;SDS011;19638;49.080;11.896;2023-04-22T14:21:30;3.08;;;2.20;;
33266;SDS011;19638;49.080;11.896;2023-04-22T14:25:33;2.10;;;2.00;;
33266;SDS011;19638;49.080;11.896;2023-04-22T14:29:36;2.85;;;2.50;;
33266;SDS011;19638;49.080;11.896;2023-04-22T14:33:41;7.18;;;2.58;;
33266;SDS011;19638;49.080;11.896;2023-04-22T14:37:44;2.45;;;2.35;;
33266;SDS011;19638;49.080;11.896;2023-04-22T14:41:56;3.50;;;2.35;;
33266;SDS011;19638;49.080;11.896;2023-04-22T14:45:59;2.75;;;2.50;;
33266;SDS011;19638;49.080;11.896;2023-04-22T14:50:04;3.38;;;2.60;;
33266;SDS011;19638;49.080;11.896;2023-04-22T14:54:11;6.30;;;2.60;;
33266;SDS011;19638;49.080;11.896;2023-04-22T14:58:16;2.58;;;2.28;;
33266;SDS011;19638;49.080;11.896;2023-04-22T15:02:19;5.35;;;2.20;;
33266;SDS011;19638;49.080;11.896;2023-04-22T15:06:24;10.07;;;5.93;;
33266;SDS011;19638;49.080;11.896;2023-04-22T15:10:29;4.78;;;4.28;;
33266;SDS011;19638;49.080;11.896;2023-04-22T15:14:34;3.40;;;3.10;;
33266;SDS011;19638;49.080;11.896;2023-04-22T15:18:40;4.25;;;2.65;;
33266;SDS011;19638;49.080;11.896;2023-04-22T15:22:45;3.20;;;2.60;;
33266;SDS011;19638;49.080;11.896;2023-04-22T15:26:49;3.00;;;2.63;;
33266;SDS011;19638;49.080;11.896;2023-04-22T15:30:55;4.20;;;3.33;;
33266;SDS011;19638;49.080;11.896;2023-04-22T15:35:00;3.72;;;2.55;;
33266;SDS011;19638;49.080;11.896;2023-04-22T15:39:06;2.85;;;2.47;;
33266;SDS011;19638;49.080;11.896;2023-04-22T15:43:12;4.03;;;2.85;;
33266;SDS011;19638;49.080;11.896;2023-04-22T15:47:20;6.45;;;4.00;;
33266;SDS011;19638;49.080;11.896;2023-04-22T15:51:24;2.53;;;2.33;;
33266;SDS011;19638;49.080;11.896;2023-04-22T15:55:30;4.82;;;3.13;;
33266;SDS011;19638;49.080;11.896;2023-04-22T15:59:33;5.60;;;4.63;;
33266;SDS011;19638;49.080;11.896;2023-04-22T16:03:38;5.65;;;2.40;;
33266;SDS011;19638;49.080;11.896;2023-04-22T16:07:43;2.38;;;2.17;;
33266;SDS011;19638;49.080;11.896;2023-04-22T16:11:49;4.13;;;2.88;;
33266;SDS011;19638;49.080;11.896;2023-04-22T16:15:52;2.70;;;2.50;;
33266;SDS011;19638;49.080;11.896;2023-04-22T16:19:57;4.95;;;4.28;;
33266;SDS011;19638;49.080;11.896;2023-04-22T16:24:00;3.80;;;3.50;;
33266;SDS011;19638;49.080;11.896;2023-04-22T16:28:06;2.92;;;2.70;;
33266;SDS011;19638;49.080;11.896;2023-04-22T16:32:11;3.85;;;3.42;;
33266;SDS011;19638;49.080;11.896;2023-04-22T16:36:15;3.58;;;2.95;;
33266;SDS011;19638;49.080;11.896;2023-04-22T16:40:19;4.93;;;3.78;;
33266;SDS011;19638;49.080;11.896;2023-04-22T16:44:24;2.88;;;2.63;;
33266;SDS011;19638;49.080;11.896;2023-04-22T16:48:30;11.68;;;4.05;;
33266;SDS011;19638;49.080;11.896;2023-04-22T16:52:35;4.15;;;3.25;;
33266;SDS011;19638;49.080;11.896;2023-04-22T16:56:40;6.97;;;3.08;;
33266;SDS011;19638;49.080;11.896;2023-04-22T17:00:46;2.80;;;2.60;;
33266;SDS011;19638;49.080;11.896;2023-04-22T17:04:49;5.38;;;2.72;;
33266;SDS011;19638;49.080;11.896;2023-04-22T17:08:52;4.05;;;2.50;;
33266;SDS011;19638;49.080;11.896;2023-04-22T17:12:57;2.80;;;2.50;;
33266;SDS011;19638;49.080;11.896;2023-04-22T17:17:02;3.60;;;2.72;;
33266;SDS011;19638;49.080;11.896;2023-04-22T17:21:06;3.20;;;2.70;;
33266;SDS011;19638;49.080;11.896;2023-04-22T17:25:10;3.45;;;2.70;;
33266;SDS011;19638;49.080;11.896;2023-04-22T17:29:13;3.40;;;2.40;;
33266;SDS011;19638;49.080;11.896;2023-04-22T17:33:17;6.50;;;4.63;;
33266;SDS011;19638;49.080;11.896;2023-04-22T17:37:22;4.10;;;3.35;;
33266;SDS011;19638;49.080;11.896;2023-04-22T17:41:27;26.50;;;16.27;;
33266;SDS011;19638;49.080;11.896;2023-04-22T17:45:30;12.23;;;8.27;;
33266;SDS011;19638;49.080;11.896;2023-04-22T17:49:35;14.88;;;10.45;;
33266;SDS011;19638;49.080;11.896;2023-04-22T17:53:39;17.10;;;12.18;;
33266;SDS011;19638;49.080;11.896;2023-04-22T17:57:43;10.50;;;9.15;;
33266;SDS011;19638;49.080;11.896;2023-04-22T18:01:54;6.18;;;5.10;;
33266;SDS011;19638;49.080;11.896;2023-04-22T18:06:01;10.73;;;3.70;;
33266;SDS011;19638;49.080;11.896;2023-04-22T18:10:07;7.32;;;4.32;;
33266;SDS011;19638;49.080;11.896;2023-04-22T18:14:11;9.57;;;4.40;;
33266;SDS011;19638;49.080;11.896;2023-04-22T18:18:14;4.93;;;3.70;;
33266;SDS011;19638;49.080;11.896;2023-04-22T18:22:19;10.85;;;4.53;;
33266;SDS011;19638;49.080;11.896;2023-04-22T18:26:25;4.38;;;3.53;;
33266;SDS011;19638;49.080;11.896;2023-04-22T18:30:31;6.70;;;4.00;;
33266;SDS011;19638;49.080;11.896;2023-04-22T18:34:34;6.43;;;4.10;;
33266;SDS011;19638;49.080;11.896;2023-04-22T18:38:39;7.30;;;4.82;;
33266;SDS011;19638;49.080;11.896;2023-04-22T18:42:45;6.63;;;4.00;;
33266;SDS011;19638;49.080;11.896;2023-04-22T18:46:48;7.75;;;3.83;;
33266;SDS011;19638;49.080;11.896;2023-04-22T18:50:53;5.13;;;4.18;;
33266;SDS011;19638;49.080;11.896;2023-04-22T18:54:57;6.03;;;3.65;;
33266;SDS011;19638;49.080;11.896;2023-04-22T18:59:01;4.13;;;3.72;;
33266;SDS011;19638;49.080;11.896;2023-04-22T19:03:04;5.43;;;4.40;;
33266;SDS011;19638;49.080;11.896;2023-04-22T19:07:07;7.95;;;4.13;;
33266;SDS011;19638;49.080;11.896;2023-04-22T19:11:13;5.50;;;4.88;;
33266;SDS011;19638;49.080;11.896;2023-04-22T19:15:22;9.10;;;5.20;;
33266;SDS011;19638;49.080;11.896;2023-04-22T19:19:29;8.20;;;5.50;;
33266;SDS011;19638;49.080;11.896;2023-04-22T19:23:32;8.18;;;5.05;;
33266;SDS011;19638;49.080;11.896;2023-04-22T19:27:39;7.85;;;5.80;;
33266;SDS011;19638;49.080;11.896;2023-04-22T19:31:44;7.15;;;5.18;;
33266;SDS011;19638;49.080;11.896;2023-04-22T19:35:48;11.73;;;5.43;;
33266;SDS011;19638;49.080;11.896;2023-04-22T19:39:51;10.60;;;5.63;;
33266;SDS011;19638;49.080;11.896;2023-04-22T19:43:56;11.13;;;5.40;;
33266;SDS011;19638;49.080;11.896;2023-04-22T19:48:00;8.15;;;5.40;;
33266;SDS011;19638;49.080;11.896;2023-04-22T19:52:03;12.43;;;6.13;;
33266;SDS011;19638;49.080;11.896;2023-04-22T19:56:09;8.30;;;5.50;;
33266;SDS011;19638;49.080;11.896;2023-04-22T20:00:17;8.77;;;5.68;;
33266;SDS011;19638;49.080;11.896;2023-04-22T20:04:22;7.60;;;5.22;;
33266;SDS011;19638;49.080;11.896;2023-04-22T20:08:26;10.27;;;6.20;;
33266;SDS011;19638;49.080;11.896;2023-04-22T20:12:31;11.93;;;5.60;;
33266;SDS011;19638;49.080;11.896;2023-04-22T20:16:39;8.20;;;4.93;;
33266;SDS011;19638;49.080;11.896;2023-04-22T20:20:42;6.95;;;5.15;;
33266;SDS011;19638;49.080;11.896;2023-04-22T20:24:49;6.25;;;4.15;;
33266;SDS011;19638;49.080;11.896;2023-04-22T20:29:04;5.07;;;4.57;;
33266;SDS011;19638;49.080;11.896;2023-04-22T20:33:10;5.22;;;4.18;;
33266;SDS011;19638;49.080;11.896;2023-04-22T20:37:23;5.50;;;4.53;;
33266;SDS011;19638;49.080;11.896;2023-04-22T20:41:27;5.85;;;4.70;;
33266;SDS011;19638;49.080;11.896;2023-04-22T20:45:38;5.97;;;4.90;;
33266;SDS011;19638;49.080;11.896;2023-04-22T20:49:45;7.40;;;4.90;;
33266;SDS011;19638;49.080;11.896;2023-04-22T20:53:48;8.57;;;5.25;;
33266;SDS011;19638;49.080;11.896;2023-04-22T20:57:53;7.93;;;5.18;;
33266;SDS011;19638;49.080;11.896;2023-04-22T21:02:02;10.55;;;5.85;;
33266;SDS011;19638;49.080;11.896;2023-04-22T21:06:11;10.60;;;3.92;;
33266;SDS011;19638;49.080;11.896;2023-04-22T21:10:15;5.85;;;3.00;;
33266;SDS011;19638;49.080;11.896;2023-04-22T21:14:20;6.20;;;2.88;;
33266;SDS011;19638;49.080;11.896;2023-04-22T21:18:27;6.13;;;3.03;;
33266;SDS011;19638;49.080;11.896;2023-04-22T21:22:33;3.72;;;3.25;;
33266;SDS011;19638;49.080;11.896;2023-04-22T21:26:37;3.22;;;2.97;;
33266;SDS011;19638;49.080;11.896;2023-04-22T21:30:42;4.10;;;2.85;;
33266;SDS011;19638;49.080;11.896;2023-04-22T21:34:45;5.07;;;2.70;;
33266;SDS011;19638;49.080;11.896;2023-04-22T21:38:50;3.10;;;2.90;;
33266;SDS011;19638;49.080;11.896;2023-04-22T21:42:53;2.80;;;2.60;;
33266;SDS011;19638;49.080;11.896;2023-04-22T21:46:56;3.55;;;3.25;;
33266;SDS011;19638;49.080;11.896;2023-04-22T21:50:59;5.15;;;3.17;;
33266;SDS011;19638;49.080;11.896;2023-04-22T21:55:04;8.52;;;3.10;;
33266;SDS011;19638;49.080;11.896;2023-04-22T21:59:11;10.68;;;3.67;;
33266;SDS011;19638;49.080;11.896;2023-04-22T22:03:15;7.03;;;3.60;;
33266;SDS011;19638;49.080;11.896;2023-04-22T22:07:18;4.50;;;3.47;;
33266;SDS011;19638;49.080;11.896;2023-04-22T22:11:26;31.15;;;12.27;;
33266;SDS011;19638;49.080;11.896;2023-04-22T22:15:34;61.03;;;26.65;;
33266;SDS011;19638;49.080;11.896;2023-04-22T22:19:39;17.27;;;8.82;;
33266;SDS011;19638;49.080;11.896;2023-04-22T22:23:42;6.43;;;3.65;;
33266;SDS011;19638;49.080;11.896;2023-04-22T22:27:53;6.93;;;5.53;;
33266;SDS011;19638;49.080;11.896;2023-04-22T22:31:56;7.40;;;3.60;;
33266;SDS011;19638;49.080;11.896;2023-04-22T22:36:01;7.20;;;4.50;;
33266;SDS011;19638;49.080;11.896;2023-04-22T22:40:05;5.07;;;4.20;;
33266;SDS011;19638;49.080;11.896;2023-04-22T22:44:11;6.93;;;4.38;;
33266;SDS011;19638;49.080;11.896;2023-04-22T22:48:14;6.32;;;3.95;;
33266;SDS011;19638;49.080;11.896;2023-04-22T22:52:17;5.47;;;3.92;;
33266;SDS011;19638;49.080;11.896;2023-04-22T22:56:21;7.07;;;4.00;;
33266;SDS011;19638;49.080;11.896;2023-04-22T23:00:25;4.75;;;3.60;;
33266;SDS011;19638;49.080;11.896;2023-04-22T23:04:34;5.65;;;3.67;;
33266;SDS011;19638;49.080;11.896;2023-04-22T23:08:40;5.50;;;3.85;;
33266;SDS011;19638;49.080;11.896;2023-04-22T23:12:47;8.30;;;3.58;;
33266;SDS011;19638;49.080;11.896;2023-04-22T23:16:54;4.63;;;4.13;;
33266;SDS011;19638;49.080;11.896;2023-04-22T23:20:58;8.88;;;4.13;;
33266;SDS011;19638;49.080;11.896;2023-04-22T23:25:04;6.97;;;4.07;;
33266;SDS011;19638;49.080;11.896;2023-04-22T23:29:11;5.80;;;4.18;;
33266;SDS011;19638;49.080;11.896;2023-04-22T23:33:21;8.45;;;4.63;;
33266;SDS011;19638;49.080;11.896;2023-04-22T23:37:27;6.82;;;4.28;;
33266;SDS011;19638;49.080;11.896;2023-04-22T23:41:31;7.65;;;4.05;;
33266;SDS011;19638;49.080;11.896;2023-04-22T23:45:35;7.88;;;4.13;;
33266;SDS011;19638;49.080;11.896;2023-04-22T23:49:41;10.13;;;4.45;;
33266;SDS011;19638;49.080;11.896;2023-04-22T23:53:46;4.82;;;3.83;;
33266;SDS011;19638;49.080;11.896;2023-04-22T23:57:51;7.70;;;5.60;;
